Time;durP1;ratioP1;P1;durP2;ratioP2;P2;SDS_P1;SDS_P2;PMS_P1;PMS_P2;Temp;Humidity;BMP_temperature;BMP_pressure;BME280_temperature;BME280_humidity;BME280_pressure;Samples;Min_cycle;Max_cycle;Signal;HPM_P1;HPM_P2
2021/07/10 00:00:50;;;;;;;9.45;5.47;;;691.20;2432.00;;;;;;5039543;28;20021;-83
2021/07/10 00:03:16;;;;;;;7.38;4.80;;;691.20;2432.00;;;;;;5057314;28;20021;-83
2021/07/10 00:05:42;;;;;;;9.48;5.38;;;691.20;2432.00;;;;;;5039241;28;20025;-84
2021/07/10 00:08:09;;;;;;;7.88;5.38;;;666.50;2432.00;;;;;;5039574;28;20060;-84
2021/07/10 00:10:35;;;;;;;7.35;5.15;;;666.50;2432.00;;;;;;5039367;28;20021;-85
2021/07/10 00:13:01;;;;;;;11.18;6.00;;;666.50;2432.00;;;;;;5039375;28;20020;-85
2021/07/10 00:15:27;;;;;;;7.10;5.32;;;666.40;2432.00;;;;;;5039252;28;20029;-85
2021/07/10 00:17:53;;;;;;;10.73;5.95;;;666.20;2432.00;;;;;;5039246;28;20025;-84
2021/07/10 00:20:20;;;;;;;10.40;5.40;;;666.20;2432.00;;;;;;5038778;28;20049;-83
2021/07/10 00:22:47;;;;;;;7.28;5.32;;;666.30;2432.00;;;;;;5039238;28;20032;-83
2021/07/10 00:25:16;;;;;;;8.07;5.30;;;666.30;2432.00;;;;;;5037737;28;20136;-83
2021/07/10 00:27:44;;;;;;;12.73;6.13;;;666.20;2432.00;;;;;;5039294;28;20021;-82
2021/07/10 00:30:12;;;;;;;8.48;5.25;;;666.20;2432.00;;;;;;5039133;28;20032;-84
2021/07/10 00:32:38;;;;;;;9.57;5.55;;;666.10;2432.00;;;;;;5038950;28;20043;-84
2021/07/10 00:35:06;;;;;;;7.63;5.07;;;666.20;2432.00;;;;;;5038900;28;20531;-81
2021/07/10 00:37:32;;;;;;;11.25;5.60;;;666.30;2432.00;;;;;;5039100;28;20021;-85
2021/07/10 00:39:58;;;;;;;9.43;5.85;;;666.30;2432.00;;;;;;5038588;28;20528;-83
2021/07/10 00:42:24;;;;;;;7.88;5.55;;;666.30;2432.00;;;;;;5038895;28;20021;-84
2021/07/10 00:44:50;;;;;;;9.90;5.75;;;666.00;2432.00;;;;;;5038357;28;20048;-84
2021/07/10 00:47:16;;;;;;;8.90;5.63;;;666.10;2432.00;;;;;;5038647;28;20021;-84
2021/07/10 00:49:42;;;;;;;10.68;6.03;;;665.90;2432.00;;;;;;5038788;28;20361;-83
2021/07/10 00:52:08;;;;;;;12.45;6.13;;;665.90;2432.00;;;;;;5038638;28;20029;-84
2021/07/10 00:54:35;;;;;;;11.20;6.30;;;666.00;2432.00;;;;;;5038520;28;20029;-83
2021/07/10 00:57:02;;;;;;;13.43;7.20;;;665.90;2432.00;;;;;;5039312;28;20453;-85
2021/07/10 00:59:29;;;;;;;8.75;6.03;;;665.90;2432.00;;;;;;5038311;28;20059;-84
2021/07/10 01:01:55;;;;;;;9.27;5.85;;;640.90;2432.00;;;;;;5038524;28;20043;-84
2021/07/10 01:04:22;;;;;;;10.93;6.35;;;640.70;2432.00;;;;;;5038561;28;20040;-83
2021/07/10 01:06:48;;;;;;;12.63;6.03;;;640.60;2432.00;;;;;;5038324;28;20025;-83
2021/07/10 01:09:17;;;;;;;9.48;6.20;;;640.60;2432.00;;;;;;5038232;28;20054;-82
2021/07/10 01:11:44;;;;;;;12.13;6.72;;;640.50;2432.00;;;;;;5056251;28;20025;-83
2021/07/10 01:14:10;;;;;;;10.02;7.43;;;640.50;2432.00;;;;;;5038093;28;20049;-83
2021/07/10 01:16:36;;;;;;;9.63;6.82;;;640.60;2432.00;;;;;;5038217;28;20463;-82
2021/07/10 01:19:02;;;;;;;10.18;6.65;;;640.70;2432.00;;;;;;5038051;28;20024;-82
2021/07/10 01:21:28;;;;;;;9.82;5.88;;;640.70;2432.00;;;;;;5037997;28;20021;-83
2021/07/10 01:23:53;;;;;;;11.70;6.22;;;640.70;2432.00;;;;;;5038404;28;20074;-83
2021/07/10 01:26:20;;;;;;;12.27;6.63;;;640.50;2432.00;;;;;;5038034;28;20028;-84
2021/07/10 01:28:47;;;;;;;8.90;6.15;;;640.50;2432.00;;;;;;5037952;28;20605;-84
2021/07/10 01:31:12;;;;;;;10.50;6.28;;;640.40;2432.00;;;;;;5055723;28;20017;-84
2021/07/10 01:33:39;;;;;;;10.73;7.05;;;640.30;2432.00;;;;;;5037886;28;20071;-82
2021/07/10 01:36:06;;;;;;;10.35;6.35;;;640.30;2432.00;;;;;;5037475;28;20028;-85
2021/07/10 01:38:32;;;;;;;8.57;5.65;;;640.30;2432.00;;;;;;5037786;28;20021;-83
2021/07/10 01:40:58;;;;;;;13.23;5.97;;;640.20;2432.00;;;;;;5037730;28;20024;-83
2021/07/10 01:43:24;;;;;;;10.40;6.32;;;640.30;2432.00;;;;;;5037598;28;20021;-84
2021/07/10 01:45:51;;;;;;;8.95;6.40;;;640.30;2432.00;;;;;;5036990;28;20055;-83
2021/07/10 01:48:17;;;;;;;12.35;5.88;;;640.40;2432.00;;;;;;5055334;28;20052;-83
2021/07/10 01:50:45;;;;;;;10.90;6.50;;;640.40;2432.00;;;;;;5055184;28;20098;-84
2021/07/10 01:53:12;;;;;;;9.43;5.97;;;640.40;2432.00;;;;;;5037479;28;20449;-83
2021/07/10 01:55:38;;;;;;;11.73;7.95;;;640.10;2432.00;;;;;;5037543;28;20056;-84
2021/07/10 01:58:04;;;;;;;10.23;6.35;;;640.20;2432.00;;;;;;5037309;28;20028;-83
2021/07/10 02:00:44;;;;;;;8.40;6.43;;;615.20;2432.00;;;;;;5037509;28;20016;-84
2021/07/10 02:03:12;;;;;;;8.15;6.43;;;640.00;2432.00;;;;;;5037422;28;20021;-83
2021/07/10 02:05:38;;;;;;;12.20;7.35;;;615.30;2432.00;;;;;;5037274;28;20029;-85
2021/07/10 02:08:04;;;;;;;9.88;6.40;;;615.30;2432.00;;;;;;5037362;28;20032;-84
2021/07/10 02:10:32;;;;;;;9.75;6.43;;;615.20;2432.00;;;;;;5036846;28;20484;-84
2021/07/10 02:13:10;;;;;;;9.93;6.70;;;615.20;2432.00;;;;;;5037198;28;20028;-83
2021/07/10 02:15:37;;;;;;;14.52;6.97;;;615.20;2432.00;;;;;;5037154;28;20480;-83
2021/07/10 02:18:04;;;;;;;11.00;6.47;;;615.10;2432.00;;;;;;5036945;28;20045;-83
2021/07/10 02:20:30;;;;;;;11.18;6.80;;;615.10;2432.00;;;;;;5036894;28;20016;-84
2021/07/10 02:22:57;;;;;;;11.02;6.78;;;615.30;2432.00;;;;;;5036897;28;20070;-82
2021/07/10 02:25:24;;;;;;;7.95;6.35;;;615.00;2432.00;;;;;;5036625;28;20024;-85
2021/07/10 02:27:51;;;;;;;10.25;6.13;;;615.20;2432.00;;;;;;5036977;28;20059;-84
2021/07/10 02:30:21;;;;;;;8.20;6.80;;;615.20;2432.00;;;;;;5036795;28;20028;-83
2021/07/10 02:32:47;;;;;;;10.75;6.38;;;615.20;2432.00;;;;;;5036728;28;20032;-83
2021/07/10 02:35:15;;;;;;;8.52;6.50;;;615.20;2432.00;;;;;;5036993;28;20025;-85
2021/07/10 02:37:42;;;;;;;10.48;6.63;;;615.20;2432.00;;;;;;5054381;28;20017;-84
2021/07/10 02:40:11;;;;;;;14.68;7.57;;;615.00;2432.00;;;;;;5036509;28;20029;-82
2021/07/10 02:42:38;;;;;;;9.57;6.60;;;615.10;2432.00;;;;;;5036670;28;20025;-84
2021/07/10 02:45:06;;;;;;;10.32;6.70;;;615.10;2432.00;;;;;;5036301;28;20052;-84
2021/07/10 02:47:32;;;;;;;8.20;7.00;;;615.00;2432.00;;;;;;5036006;28;20048;-84
2021/07/10 02:49:58;;;;;;;13.88;7.35;;;615.00;2432.00;;;;;;5036688;28;20122;-83
2021/07/10 02:52:24;;;;;;;11.82;7.10;;;615.00;2432.00;;;;;;5036679;28;20453;-84
2021/07/10 02:54:49;;;;;;;12.93;6.85;;;615.00;2432.00;;;;;;5036588;28;20049;-84
2021/07/10 02:57:18;;;;;;;11.75;7.18;;;615.00;2432.00;;;;;;5037516;28;20020;-84
2021/07/10 02:59:44;;;;;;;7.55;6.35;;;615.00;2432.00;;;;;;5036559;28;20407;-84
2021/07/10 03:02:11;;;;;;;9.30;6.95;;;615.00;2432.00;;;;;;5036681;28;20083;-83
2021/07/10 03:04:37;;;;;;;9.15;6.85;;;615.00;2432.00;;;;;;5036638;28;20029;-83
2021/07/10 03:07:04;;;;;;;12.07;6.40;;;615.00;2432.00;;;;;;5036775;28;20025;-83
2021/07/10 03:09:29;;;;;;;11.07;6.68;;;614.70;2432.00;;;;;;5036540;28;20021;-85
2021/07/10 03:11:55;;;;;;;12.00;6.90;;;615.00;2432.00;;;;;;5036373;28;20079;-83
2021/07/10 03:14:21;;;;;;;10.68;6.28;;;615.10;2432.00;;;;;;5036391;28;20061;-83
2021/07/10 03:16:47;;;;;;;12.68;6.95;;;615.00;2432.00;;;;;;5036333;28;20135;-83
2021/07/10 03:19:12;;;;;;;11.02;7.43;;;614.90;2432.00;;;;;;5036504;28;20021;-83
2021/07/10 03:21:38;;;;;;;11.23;7.32;;;615.00;2432.00;;;;;;5036277;28;20029;-84
2021/07/10 03:24:04;;;;;;;10.40;7.18;;;614.80;2432.00;;;;;;5036586;28;20025;-83
2021/07/10 03:26:31;;;;;;;12.77;7.28;;;614.80;2432.00;;;;;;5036262;28;20040;-84
2021/07/10 03:28:56;;;;;;;13.68;8.40;;;614.50;2432.00;;;;;;5036183;28;20029;-84
2021/07/10 03:31:22;;;;;;;9.48;7.75;;;614.70;2432.00;;;;;;5036548;28;20030;-85
2021/07/10 03:33:48;;;;;;;16.00;8.30;;;614.40;2432.00;;;;;;5036249;28;20071;-84
2021/07/10 03:36:14;;;;;;;12.50;7.60;;;614.50;2432.00;;;;;;5036007;28;20123;-82
2021/07/10 03:38:43;;;;;;;8.55;7.65;;;614.60;2432.00;;;;;;5036193;28;20025;-84
2021/07/10 03:41:14;;;;;;;13.13;7.93;;;614.50;2432.00;;;;;;5036297;28;20025;-85
2021/07/10 03:43:41;;;;;;;11.52;6.35;;;614.50;2432.00;;;;;;5036209;28;20025;-84
2021/07/10 03:46:06;;;;;;;12.90;7.28;;;614.60;2432.00;;;;;;5035995;28;20049;-83
2021/07/10 03:48:32;;;;;;;8.10;6.30;;;614.70;2432.00;;;;;;5035859;28;20021;-84
2021/07/10 03:50:59;;;;;;;11.07;6.93;;;614.60;2432.00;;;;;;5036205;28;20035;-83
2021/07/10 03:53:25;;;;;;;10.18;7.30;;;614.70;2432.00;;;;;;5036081;28;20036;-83
2021/07/10 03:55:51;;;;;;;10.73;7.43;;;614.80;2432.00;;;;;;5035966;28;20453;-84
2021/07/10 03:58:17;;;;;;;10.55;6.68;;;614.80;2432.00;;;;;;5036570;28;20066;-84
2021/07/10 04:00:43;;;;;;;8.80;6.35;;;614.80;2432.00;;;;;;5039596;28;20476;-85
2021/07/10 04:03:08;;;;;;;9.90;7.35;;;614.70;2432.00;;;;;;5039662;28;20021;-87
2021/07/10 04:05:34;;;;;;;12.48;7.22;;;614.70;2432.00;;;;;;5039594;28;20512;-85
2021/07/10 04:08:01;;;;;;;10.05;7.30;;;614.70;2432.00;;;;;;5057375;28;20462;-84
2021/07/10 04:10:27;;;;;;;15.40;6.90;;;614.70;2432.00;;;;;;5039532;28;20024;-83
2021/07/10 04:12:53;;;;;;;12.50;7.85;;;614.70;2432.00;;;;;;5039494;28;20066;-84
2021/07/10 04:15:19;;;;;;;10.77;8.43;;;614.70;2432.00;;;;;;5039393;28;20029;-84
2021/07/10 04:17:46;;;;;;;15.23;7.68;;;614.40;2432.00;;;;;;5039261;28;20017;-85
2021/07/10 04:20:15;;;;;;;13.77;9.20;;;614.60;2432.00;;;;;;5039268;28;20029;-85
2021/07/10 04:22:41;;;;;;;16.20;8.57;;;614.70;2432.00;;;;;;5039235;28;20028;-87
2021/07/10 04:25:10;;;;;;;12.82;7.95;;;614.60;2432.00;;;;;;5039045;28;20024;-83
2021/07/10 04:27:38;;;;;;;14.85;8.43;;;614.50;2432.00;;;;;;5038984;28;20028;-84
2021/07/10 04:30:06;;;;;;;12.70;8.60;;;614.40;2432.00;;;;;;5039103;28;20021;-83
2021/07/10 04:32:32;;;;;;;11.18;7.45;;;614.40;2432.00;;;;;;5039126;28;20032;-84
2021/07/10 04:34:58;;;;;;;11.80;8.27;;;614.40;2432.00;;;;;;5039432;28;20079;-83
2021/07/10 04:37:24;;;;;;;15.30;7.93;;;614.40;2432.00;;;;;;5038943;28;20388;-82
2021/07/10 04:39:49;;;;;;;17.95;7.50;;;614.50;2432.00;;;;;;5038906;28;20044;-83
2021/07/10 04:42:15;;;;;;;12.55;8.15;;;614.50;2432.00;;;;;;5039164;28;20095;-85
2021/07/10 04:44:42;;;;;;;11.60;7.40;;;614.40;2432.00;;;;;;5038429;28;20111;-84
2021/07/10 04:47:09;;;;;;;15.32;7.57;;;614.40;2432.00;;;;;;5056693;28;20020;-83
2021/07/10 04:49:35;;;;;;;11.48;6.72;;;614.70;2432.00;;;;;;5038762;28;20025;-84
2021/07/10 04:52:02;;;;;;;10.38;6.82;;;614.60;2432.00;;;;;;5038674;28;20112;-83
2021/07/10 04:54:28;;;;;;;8.98;6.85;;;614.60;2432.00;;;;;;5038764;28;20021;-84
2021/07/10 04:56:54;;;;;;;11.10;7.20;;;614.60;2432.00;;;;;;5038735;28;20544;-83
2021/07/10 04:59:20;;;;;;;9.48;6.72;;;614.70;2432.00;;;;;;5038535;28;20052;-82
2021/07/10 05:01:46;;;;;;;10.90;6.55;;;614.70;2432.00;;;;;;5038766;28;20032;-84
2021/07/10 05:04:11;;;;;;;10.50;6.55;;;614.80;2432.00;;;;;;5038678;28;20021;-84
2021/07/10 05:06:37;;;;;;;11.82;7.28;;;614.80;2432.00;;;;;;5038284;28;20418;-84
2021/07/10 05:09:04;;;;;;;10.82;6.72;;;614.70;2432.00;;;;;;5038408;28;20115;-83
2021/07/10 05:11:29;;;;;;;12.90;6.97;;;614.70;2432.00;;;;;;5038046;28;20021;-82
2021/07/10 05:13:55;;;;;;;10.30;6.95;;;614.70;2432.00;;;;;;5038299;28;20021;-84
2021/07/10 05:16:21;;;;;;;13.98;7.65;;;614.60;2432.00;;;;;;5038348;28;20021;-83
2021/07/10 05:18:48;;;;;;;11.45;7.88;;;614.70;2432.00;;;;;;5038245;28;20116;-82
2021/07/10 05:21:14;;;;;;;10.25;7.00;;;614.70;2432.00;;;;;;5038258;28;20021;-83
2021/07/10 05:23:41;;;;;;;14.77;7.72;;;614.80;2432.00;;;;;;5038339;28;20021;-83
2021/07/10 05:26:09;;;;;;;11.18;7.40;;;614.80;2432.00;;;;;;5037788;28;20056;-83
2021/07/10 05:28:35;;;;;;;15.80;8.00;;;615.00;2432.00;;;;;;5038150;28;20021;-84
2021/07/10 05:31:01;;;;;;;14.65;8.65;;;615.10;2432.00;;;;;;5055761;28;20028;-82
2021/07/10 05:33:28;;;;;;;12.65;7.50;;;615.10;2432.00;;;;;;5038118;28;20017;-84
2021/07/10 05:35:54;;;;;;;11.45;7.60;;;615.20;2432.00;;;;;;5037897;28;20112;-84
2021/07/10 05:38:19;;;;;;;13.02;7.30;;;615.20;2432.00;;;;;;5037732;28;20052;-84
2021/07/10 05:40:45;;;;;;;12.95;7.70;;;615.30;2432.00;;;;;;5037527;28;20022;-83
2021/07/10 05:43:11;;;;;;;12.55;7.35;;;640.10;2432.00;;;;;;5037713;28;20047;-83
2021/07/10 05:45:37;;;;;;;13.68;8.38;;;640.20;2432.00;;;;;;5055273;28;20091;-84
2021/07/10 05:48:03;;;;;;;14.43;8.45;;;640.20;2432.00;;;;;;5037539;28;20037;-84
2021/07/10 05:50:29;;;;;;;14.38;8.77;;;640.50;2432.00;;;;;;5037661;28;20452;-84
2021/07/10 05:52:55;;;;;;;14.50;7.63;;;640.50;2432.00;;;;;;5037634;28;20167;-84
2021/07/10 05:55:21;;;;;;;10.18;6.93;;;640.60;2432.00;;;;;;5037412;28;20024;-83
2021/07/10 05:57:47;;;;;;;11.00;7.25;;;640.60;2432.00;;;;;;5037129;28;20101;-84
2021/07/10 06:00:13;;;;;;;11.88;7.68;;;640.70;2432.00;;;;;;5037311;28;20028;-83
2021/07/10 06:02:40;;;;;;;11.95;8.65;;;640.90;2432.00;;;;;;5037272;28;20463;-83
2021/07/10 06:05:08;;;;;;;14.00;6.75;;;665.60;2432.00;;;;;;5037306;28;20067;-83
2021/07/10 06:07:34;;;;;;;11.77;6.82;;;665.70;2432.00;;;;;;5020639;28;20039;-84
2021/07/10 06:10:00;;;;;;;10.18;5.95;;;665.60;2432.00;;;;;;5037200;28;20108;-83
2021/07/10 06:12:26;;;;;;;9.35;6.05;;;665.70;2432.00;;;;;;5037303;28;20365;-86
2021/07/10 06:14:51;;;;;;;10.00;6.85;;;665.90;2432.00;;;;;;5036776;28;20112;-82
2021/07/10 06:17:17;;;;;;;11.23;6.28;;;666.10;2432.00;;;;;;5037762;28;20117;-82
2021/07/10 06:19:43;;;;;;;9.85;6.40;;;666.20;2432.00;;;;;;5037180;28;20017;-84
2021/07/10 06:22:09;;;;;;;8.88;6.25;;;666.20;2432.00;;;;;;5036071;28;20025;-85
2021/07/10 06:24:35;;;;;;;11.63;6.00;;;666.40;2432.00;;;;;;5036963;28;20092;-84
2021/07/10 06:27:01;;;;;;;11.57;6.22;;;666.50;2432.00;;;;;;5036982;28;20338;-84
2021/07/10 06:29:27;;;;;;;9.52;5.30;;;691.20;2432.00;;;;;;5036868;28;20028;-85
2021/07/10 06:31:53;;;;;;;14.82;5.95;;;691.20;2432.00;;;;;;5037290;28;20017;-84
2021/07/10 06:34:20;;;;;;;9.93;6.10;;;691.40;2432.00;;;;;;5036984;28;20108;-86
2021/07/10 06:36:45;;;;;;;7.80;5.22;;;691.30;2432.00;;;;;;5036875;28;20475;-85
2021/07/10 06:39:11;;;;;;;10.95;5.70;;;691.40;2432.00;;;;;;5036875;28;20020;-83
2021/07/10 06:41:38;;;;;;;10.98;6.32;;;691.60;2432.00;;;;;;5036838;28;20496;-86
2021/07/10 06:44:04;;;;;;;12.05;4.80;;;691.60;2432.00;;;;;;5036753;28;20070;-85
2021/07/10 06:46:30;;;;;;;9.70;5.05;;;691.90;2406.40;;;;;;5036542;28;20045;-84
2021/07/10 06:48:56;;;;;;;11.30;4.88;;;692.10;2380.80;;;;;;5054687;28;20024;-85
2021/07/10 06:51:22;;;;;;;7.68;4.50;;;716.90;2329.60;;;;;;5036447;28;20514;-82
2021/07/10 06:53:47;;;;;;;6.97;4.20;;;717.10;2304.00;;;;;;5036552;28;20021;-82
2021/07/10 06:56:13;;;;;;;11.32;4.93;;;717.20;2278.40;;;;;;5036742;28;20021;-84
2021/07/10 06:58:39;;;;;;;7.57;4.70;;;717.30;2278.40;;;;;;5036590;28;20067;-85
2021/07/10 07:01:05;;;;;;;12.38;5.22;;;717.50;2278.40;;;;;;5036843;28;20029;-83
2021/07/10 07:03:31;;;;;;;8.30;4.88;;;717.60;2252.80;;;;;;5036929;28;20021;-83
2021/07/10 07:05:57;;;;;;;9.43;4.65;;;717.70;2227.20;;;;;;5036380;28;20079;-85
2021/07/10 07:08:23;;;;;;;8.60;5.53;;;742.40;2252.80;;;;;;5036696;28;20024;-86
2021/07/10 07:10:49;;;;;;;10.10;6.40;;;742.50;2227.20;;;;;;5036302;28;20057;-85
2021/07/10 07:13:15;;;;;;;11.43;6.60;;;742.60;2227.20;;;;;;5036594;28;20094;-85
2021/07/10 07:15:41;;;;;;;8.23;4.15;;;742.60;2227.20;;;;;;5036503;28;20025;-84
2021/07/10 07:18:07;;;;;;;8.82;4.53;;;742.80;2176.00;;;;;;5036639;28;20025;-85
2021/07/10 07:20:33;;;;;;;8.45;4.65;;;742.90;2150.40;;;;;;5036665;28;20045;-85
2021/07/10 07:22:59;;;;;;;12.90;5.55;;;743.00;2150.40;;;;;;5036365;28;20477;-85
2021/07/10 07:25:25;;;;;;;8.75;4.72;;;743.10;2150.40;;;;;;5036014;28;20025;-84
2021/07/10 07:27:52;;;;;;;6.72;4.70;;;743.10;2124.80;;;;;;5036353;28;20028;-84
2021/07/10 07:30:18;;;;;;;7.00;5.45;;;743.20;2099.20;;;;;;5054044;28;20079;-84
2021/07/10 07:32:45;;;;;;;7.82;5.70;;;743.30;2099.20;;;;;;5053804;28;20025;-84
2021/07/10 07:35:13;;;;;;;9.98;5.65;;;768.10;2073.60;;;;;;5040226;28;20522;-83
2021/07/10 07:37:39;;;;;;;6.70;3.72;;;768.00;2073.60;;;;;;5040491;28;20056;-83
2021/07/10 07:40:06;;;;;;;9.10;5.50;;;768.20;2022.40;;;;;;5040578;28;20021;-84
2021/07/10 07:42:32;;;;;;;7.50;4.32;;;768.30;2048.00;;;;;;5040184;28;20022;-85
2021/07/10 07:44:58;;;;;;;10.55;5.55;;;768.10;1996.80;;;;;;5039763;28;20111;-84
2021/07/10 07:47:24;;;;;;;9.23;4.93;;;768.40;1996.80;;;;;;5040068;28;20024;-84
2021/07/10 07:49:49;;;;;;;9.18;5.38;;;768.50;1971.20;;;;;;5040005;28;20462;-83
2021/07/10 07:52:15;;;;;;;13.13;6.80;;;768.70;1971.20;;;;;;5039872;28;20021;-84
2021/07/10 07:54:41;;;;;;;10.63;5.10;;;768.90;1971.20;;;;;;5039520;28;20064;-84
2021/07/10 07:57:08;;;;;;;9.68;5.03;;;793.60;1996.80;;;;;;5039721;28;20357;-84
2021/07/10 07:59:34;;;;;;;14.63;6.45;;;768.40;1971.20;;;;;;5039737;28;20028;-84
2021/07/10 08:02:00;;;;;;;5.97;4.35;;;819.20;1996.80;;;;;;5040188;28;20039;-84
2021/07/10 08:04:26;;;;;;;10.30;5.00;;;768.90;1945.60;;;;;;5039685;28;20203;-84
2021/07/10 08:06:53;;;;;;;6.80;4.68;;;793.60;1971.20;;;;;;5041504;28;20027;-84
2021/07/10 08:09:19;;;;;;;11.30;5.07;;;793.60;1971.20;;;;;;5039831;28;20028;-84
2021/07/10 08:11:45;;;;;;;11.52;4.40;;;768.80;1920.00;;;;;;5039704;28;20108;-82
2021/07/10 08:14:12;;;;;;;8.15;4.57;;;793.70;1945.60;;;;;;5039564;28;20048;-84
2021/07/10 08:16:39;;;;;;;6.95;4.93;;;793.70;1945.60;;;;;;5039624;28;20064;-84
2021/07/10 08:19:04;;;;;;;8.43;5.20;;;793.90;1945.60;;;;;;5039350;28;20017;-83
2021/07/10 08:21:33;;;;;;;6.13;3.88;;;794.20;1920.00;;;;;;5039379;28;20082;-82
2021/07/10 08:23:59;;;;;;;11.00;5.90;;;794.00;1868.80;;;;;;5056800;28;20071;-83
2021/07/10 08:26:27;;;;;;;15.90;4.43;;;794.00;1920.00;;;;;;5040253;28;20025;-84
2021/07/10 08:28:54;;;;;;;9.40;4.40;;;794.20;1868.80;;;;;;5038840;28;20025;-83
2021/07/10 08:31:20;;;;;;;5.80;3.72;;;794.40;1843.20;;;;;;5038946;28;20115;-81
2021/07/10 08:33:47;;;;;;;6.53;4.22;;;819.20;1843.20;;;;;;5038907;28;20189;-82
2021/07/10 08:36:12;;;;;;;9.55;4.63;;;819.50;1792.00;;;;;;5038602;28;20115;-81
2021/07/10 08:38:38;;;;;;;9.98;4.57;;;819.60;1817.60;;;;;;5038722;28;20112;-82
2021/07/10 08:41:09;;;;;;;7.20;4.13;;;819.60;1740.80;;;;;;5038793;28;20021;-82
2021/07/10 08:43:39;;;;;;;11.65;4.68;;;819.80;1740.80;;;;;;5038706;28;20407;-80
2021/07/10 08:46:06;;;;;;;8.15;4.40;;;820.10;1766.40;;;;;;5037032;28;20075;-83
2021/07/10 08:48:34;;;;;;;7.78;4.60;;;820.10;1715.20;;;;;;5035303;28;20021;-81
2021/07/10 08:51:03;;;;;;;9.55;4.72;;;845.00;1740.80;;;;;;5044779;28;20084;-83
2021/07/10 08:53:29;;;;;;;7.03;4.18;;;845.20;1715.20;;;;;;5029390;28;20029;-82
2021/07/10 08:55:55;;;;;;;8.70;4.63;;;845.00;1715.20;;;;;;5022799;28;20024;-83
2021/07/10 08:58:21;;;;;;;10.60;4.78;;;845.30;1689.60;;;;;;5030158;28;20017;-81
2021/07/10 09:00:49;;;;;;;13.07;4.38;;;845.40;1664.00;;;;;;5027036;28;20033;-83
2021/07/10 09:03:15;;;;;;;19.45;5.40;;;845.20;1715.20;;;;;;5029765;28;20361;-83
2021/07/10 09:05:42;;;;;;;9.95;4.18;;;845.40;1664.00;;;;;;5029889;28;20040;-83
2021/07/10 09:08:13;;;;;;;9.30;4.35;;;845.50;1664.00;;;;;;5026933;28;20022;-84
2021/07/10 09:10:41;;;;;;;10.00;4.28;;;845.50;1638.40;;;;;;5043917;28;20039;-82
2021/07/10 09:13:07;;;;;;;7.10;4.38;;;845.60;1664.00;;;;;;5026226;28;20082;-82
2021/07/10 09:15:33;;;;;;;7.35;4.00;;;845.70;1664.00;;;;;;5023518;28;20071;-83
2021/07/10 09:17:59;;;;;;;6.60;4.90;;;870.40;1638.40;;;;;;5027917;28;20024;-83
2021/07/10 09:20:28;;;;;;;6.38;3.90;;;870.50;1638.40;;;;;;5029814;28;20033;-85
2021/07/10 09:22:55;;;;;;;6.70;4.03;;;870.60;1638.40;;;;;;5023669;28;20013;-83
2021/07/10 09:25:24;;;;;;;6.07;4.80;;;870.50;1612.80;;;;;;5028430;28;20036;-83
2021/07/10 09:27:51;;;;;;;7.18;4.15;;;870.60;1612.80;;;;;;5031467;28;20021;-82
2021/07/10 09:30:28;;;;;;;10.88;5.30;;;870.60;1612.80;;;;;;5043432;28;20025;-83
2021/07/10 09:33:18;;;;;;;5.18;3.55;;;870.80;1638.40;;;;;;5020721;28;20013;-83
2021/07/10 09:35:52;;;;;;;9.05;4.47;;;871.00;1638.40;;;;;;5018200;28;20487;-83
2021/07/10 09:38:25;;;;;;;10.07;4.03;;;871.10;1612.80;;;;;;5017662;28;20024;-82
2021/07/10 09:41:13;;;;;;;8.65;4.60;;;871.10;1612.80;;;;;;5017872;28;20051;-83
2021/07/10 09:43:39;;;;;;;12.90;6.10;;;871.20;1587.20;;;;;;5017595;28;20021;-82
2021/07/10 09:46:08;;;;;;;8.48;5.30;;;896.00;1612.80;;;;;;5017060;28;20435;-82
2021/07/10 09:48:41;;;;;;;9.10;5.47;;;896.30;1587.20;;;;;;5017469;28;20025;-83
2021/07/10 09:51:21;;;;;;;6.40;4.35;;;896.50;1561.60;;;;;;5035354;28;20045;-82
2021/07/10 09:54:07;;;;;;;10.35;4.70;;;896.70;1561.60;;;;;;5017773;28;20051;-82
2021/07/10 09:56:39;;;;;;;8.18;4.00;;;896.70;1561.60;;;;;;5016946;28;20030;-83
2021/07/10 09:59:23;;;;;;;6.78;4.07;;;896.80;1561.60;;;;;;5026818;28;20025;-84
2021/07/10 10:01:50;;;;;;;10.30;6.03;;;896.80;1536.00;;;;;;5055131;28;20039;-81
2021/07/10 10:04:23;;;;;;;7.97;4.72;;;896.80;1536.00;;;;;;5054965;28;20017;-82
2021/07/10 10:06:49;;;;;;;12.05;5.18;;;896.80;1561.60;;;;;;5037119;28;20036;-83
2021/07/10 10:09:20;;;;;;;9.20;4.55;;;896.90;1536.00;;;;;;5037107;28;20461;-83
2021/07/10 10:11:57;;;;;;;9.25;5.78;;;896.20;1536.00;;;;;;5037084;28;20017;-83
2021/07/10 10:14:27;;;;;;;11.40;5.30;;;896.20;1536.00;;;;;;5026478;28;20028;-83
2021/07/10 10:16:54;;;;;;;7.75;4.72;;;896.70;1536.00;;;;;;5033214;28;20032;-83
2021/07/10 10:19:22;;;;;;;6.93;4.63;;;921.60;1536.00;;;;;;5036748;28;20079;-82
2021/07/10 10:21:51;;;;;;;8.57;3.80;;;921.70;1510.40;;;;;;5036339;28;20116;-84
2021/07/10 10:24:18;;;;;;;5.35;3.50;;;921.90;1510.40;;;;;;5036138;28;20044;-84
2021/07/10 10:26:45;;;;;;;7.47;3.40;;;922.00;1510.40;;;;;;5036413;28;20380;-83
2021/07/10 10:29:12;;;;;;;10.93;3.78;;;922.10;1484.80;;;;;;5054475;28;20126;-84
2021/07/10 10:31:42;;;;;;;6.55;3.45;;;922.30;1484.80;;;;;;5036579;28;20028;-83
2021/07/10 10:34:09;;;;;;;10.65;4.40;;;922.20;1484.80;;;;;;5054843;28;20021;-84
2021/07/10 10:36:36;;;;;;;5.72;3.50;;;922.00;1510.40;;;;;;5036535;28;20029;-84
2021/07/10 10:39:08;;;;;;;7.05;4.32;;;922.00;1510.40;;;;;;5054000;28;20021;-82
2021/07/10 10:41:42;;;;;;;5.40;3.40;;;922.20;1484.80;;;;;;5036417;28;20017;-84
2021/07/10 10:44:09;;;;;;;9.75;3.55;;;922.30;1484.80;;;;;;5036623;28;20020;-82
2021/07/10 10:46:55;;;;;;;8.43;3.85;;;947.20;1484.80;;;;;;5035894;28;20045;-82
2021/07/10 10:49:47;;;;;;;7.63;3.10;;;947.40;1459.20;;;;;;5036388;28;20017;-84
2021/07/10 10:52:42;;;;;;;5.40;3.30;;;947.20;1484.80;;;;;;5036194;28;20413;-84
2021/07/10 10:55:14;;;;;;;8.25;3.67;;;947.70;1459.20;;;;;;5036496;28;20032;-85
2021/07/10 10:57:47;;;;;;;5.32;3.35;;;947.80;1433.60;;;;;;5036025;28;20024;-84
2021/07/10 11:00:15;;;;;;;5.75;3.30;;;947.80;1408.00;;;;;;5036362;28;20404;-84
2021/07/10 11:02:49;;;;;;;6.63;3.25;;;947.20;1433.60;;;;;;5054287;28;20028;-83
2021/07/10 11:05:35;;;;;;;4.88;3.17;;;947.50;1433.60;;;;;;5035982;28;20029;-85
2021/07/10 11:08:27;;;;;;;6.55;2.97;;;947.70;1408.00;;;;;;5035007;28;20061;-85
2021/07/10 11:10:58;;;;;;;6.22;2.97;;;948.00;1382.40;;;;;;5036387;28;20107;-86
2021/07/10 11:13:39;;;;;;;9.60;4.00;;;947.80;1356.80;;;;;;5035962;28;20031;-84
2021/07/10 11:16:06;;;;;;;6.60;2.80;;;948.10;1382.40;;;;;;5036307;28;20057;-83
2021/07/10 11:18:59;;;;;;;5.00;3.08;;;972.80;1356.80;;;;;;5036257;28;20017;-84
2021/07/10 11:21:44;;;;;;;5.68;3.03;;;972.90;1356.80;;;;;;5036050;28;20021;-83
2021/07/10 11:26:56;;;;;;;3.75;2.58;;;973.10;1356.80;;;;;;5053553;28;20404;-83
2021/07/10 11:29:36;;;;;;;8.38;3.40;;;973.10;1382.40;;;;;;5036072;28;20017;-82
2021/07/10 11:32:11;;;;;;;7.35;3.85;;;973.20;1382.40;;;;;;5036016;28;20112;-82
2021/07/10 11:34:50;;;;;;;8.93;2.88;;;973.20;1356.80;;;;;;5034888;28;20029;-83
2021/07/10 11:37:17;;;;;;;8.30;3.40;;;947.90;1331.20;;;;;;5033137;28;20024;-84
2021/07/10 11:39:53;;;;;;;7.35;4.18;;;948.10;1331.20;;;;;;5020129;28;20056;-85
2021/07/10 11:42:20;;;;;;;10.82;5.65;;;973.00;1382.40;;;;;;5015942;28;20025;-82
2021/07/10 11:44:51;;;;;;;6.95;3.58;;;973.20;1331.20;;;;;;5015685;28;20038;-83
2021/07/10 11:47:38;;;;;;;7.10;3.85;;;973.20;1305.60;;;;;;5016003;28;20044;-84
2021/07/10 11:50:06;;;;;;;8.07;4.50;;;973.50;1305.60;;;;;;5016341;28;20026;-85
2021/07/10 11:52:32;;;;;;;7.00;3.60;;;973.70;1305.60;;;;;;5016111;28;20361;-83
2021/07/10 11:55:02;;;;;;;6.82;3.22;;;973.60;1280.00;;;;;;5015983;28;20081;-83
2021/07/10 11:57:36;;;;;;;7.63;3.70;;;973.10;1305.60;;;;;;5016407;28;20339;-84
2021/07/10 12:00:07;;;;;;;6.15;3.35;;;973.40;1305.60;;;;;;5016108;28;20031;-84
2021/07/10 12:02:33;;;;;;;7.40;3.40;;;973.60;1305.60;;;;;;5016218;28;20025;-84
2021/07/10 12:05:08;;;;;;;4.50;2.85;;;973.70;1254.40;;;;;;5033544;28;20282;-85
2021/07/10 12:07:39;;;;;;;7.97;3.35;;;973.70;1280.00;;;;;;5015890;28;20021;-85
2021/07/10 12:10:07;;;;;;;;;;;973.70;1228.80;;;;;;5016303;28;20475;-83
2021/07/10 12:12:44;;;;;;;6.20;2.78;;;973.70;1228.80;;;;;;5016060;28;20260;-82
2021/07/10 12:15:14;;;;;;;10.77;3.10;;;998.40;1254.40;;;;;;5015934;28;20052;-83
2021/07/10 12:17:44;;;;;;;7.00;3.53;;;998.70;1254.40;;;;;;5033435;28;20076;-83
2021/07/10 12:20:11;;;;;;;10.93;3.38;;;998.70;1254.40;;;;;;5016289;28;20112;-81